| time (UTC) | temp C | wind direction | speed KPH | gust KPH | rain 1hr cm | rain 24hr cm | rain mn cm | humidity % | barometer mb |
| 20260905183534 | 13 | 301 | 8.0 | 32.2 | 0.23 | 0.23 | 0.23 | 89 | 1019.3 |
| 20260905182534 | 15 | 325 | 11.3 | 46.7 | 0.23 | 0.23 | 0.23 | 88 | 1019.0 |
| 20260905181534 | 15 | 276 | 14.5 | 49.9 | 0.20 | 0.20 | 0.20 | 87 | 1019.0 |
| 20260905180534 | 15 | 324 | 30.6 | 130.4 | 0.15 | 0.15 | 0.15 | 84 | 1019.0 |
| 20260905175534 | 17 | 274 | 14.5 | 54.7 | 0.13 | 0.13 | 0.13 | 59 | 1018.3 |
| 20260905174534 | 18 | 246 | 17.7 | 72.4 | 0.13 | 0.13 | 0.13 | 56 | 1017.6 |
| 20260905173534 | 18 | 215 | 11.3 | 40.2 | 0.13 | 0.13 | 0.13 | 56 | 1017.3 |
| 20260905172534 | 18 | 205 | 14.5 | 49.9 | 0.13 | 0.13 | 0.13 | 55 | 1017.3 |
| 20260905171534 | 18 | 221 | 9.7 | 35.4 | 0.13 | 0.13 | 0.13 | 54 | 1017.3 |
| 20260905170534 | 18 | 257 | 19.3 | 86.9 | 0.13 | 0.13 | 0.13 | 53 | 1017.3 |
| 20260905165534 | 20 | 297 | 12.9 | 49.9 | 0.13 | 0.13 | 0.13 | 52 | 1017.3 |
| 20260905164535 | 18 | 210 | 22.5 | 90.1 | 0.13 | 0.13 | 0.13 | 53 | 1017.3 |
| 20260905163536 | 18 | 241 | 19.3 | 86.9 | 0.13 | 0.13 | 0.13 | 53 | 1017.3 |
| 20260905162534 | 20 | 253 | 6.4 | 20.9 | 0.13 | 0.13 | 0.13 | 52 | 1016.9 |
| 20260905161534 | 20 | 274 | 11.3 | 40.2 | 0.13 | 0.13 | 0.13 | 52 | 1016.6 |
| 20260905160534 | 20 | 262 | 25.7 | 96.6 | 0.13 | 0.13 | 0.13 | 51 | 1016.6 |
| 20260905155534 | 20 | 144 | 19.3 | 78.9 | 0.13 | 0.13 | 0.13 | 51 | 1016.6 |
| 20260905154534 | 20 | 247 | 9.7 | 35.4 | 0.13 | 0.13 | 0.13 | 50 | 1016.6 |
| 20260905153534 | 20 | 216 | 27.4 | 115.9 | 0.13 | 0.13 | 0.13 | 50 | 1016.6 |
| 20260905152534 | 20 | 258 | 32.2 | 136.8 | 0.13 | 0.13 | 0.13 | 49 | 1016.6 |
| 20260905151534 | 21 | 191 | 14.5 | 61.2 | 0.13 | 0.13 | 0.13 | 48 | 1016.6 |
| 20260905150534 | 21 | 249 | 17.7 | 69.2 | 0.13 | 0.13 | 0.13 | 48 | 1016.6 |
| 20260905145534 | 21 | 228 | 19.3 | 90.1 | 0.13 | 0.13 | 0.13 | 47 | 1016.6 |
| 20260905144534 | 21 | 262 | 14.5 | 54.7 | 0.13 | 0.13 | 0.13 | 47 | 1016.3 |
| 20260905143534 | 21 | 241 | 27.4 | 104.6 | 0.13 | 0.13 | 0.13 | 45 | 1016.6 |
| 20260905142534 | 21 | 308 | 24.1 | 96.6 | 0.13 | 0.13 | 0.13 | 46 | 1016.3 |
| 20260905141534 | 21 | 268 | 38.6 | 154.5 | 0.13 | 0.13 | 0.13 | 44 | 1016.3 |
| 20260905140535 | 21 | 211 | 38.6 | 154.5 | 0.13 | 0.13 | 0.13 | 47 | 1016.6 |
| 20260905135534 | 21 | 223 | 27.4 | 115.9 | 0.13 | 0.13 | 0.13 | 48 | 1016.3 |
| 20260905134534 | 21 | 194 | 22.5 | 93.3 | 0.13 | 0.13 | 0.13 | 48 | 1016.3 |
| 20260905133535 | 21 | 217 | 25.7 | 96.6 | 0.13 | 0.13 | 0.13 | 51 | 1016.3 |
| 20260905132536 | 21 | 258 | 9.7 | 35.4 | 0.13 | 0.13 | 0.13 | 50 | 1016.3 |
| 20260905131534 | 21 | 264 | 30.6 | 136.8 | 0.13 | 0.13 | 0.13 | 50 | 1016.3 |
| 20260905130534 | 21 | 264 | 33.8 | 133.6 | 0.13 | 0.13 | 0.13 | 51 | 1016.3 |
| 20260905125534 | 20 | 283 | 22.5 | 96.6 | 0.13 | 0.13 | 0.13 | 51 | 1016.6 |
| 20260905124534 | 20 | 312 | 9.7 | 35.4 | 0.13 | 0.13 | 0.13 | 53 | 1016.6 |
| 20260905123534 | 20 | 317 | 19.3 | 78.9 | 0.13 | 0.13 | 0.13 | 50 | 1016.6 |
| 20260905122534 | 20 | 242 | 27.4 | 115.9 | 0.13 | 0.13 | 0.13 | 50 | 1016.6 |
| 20260905121534 | 20 | 220 | 14.5 | 64.4 | 0.13 | 0.13 | 0.13 | 53 | 1016.6 |
| 20260905120534 | 20 | 221 | 25.7 | 93.3 | 0.13 | 0.13 | 0.13 | 52 | 1016.9 |
| 20260905115534 | 18 | 252 | 25.7 | 111.0 | 0.13 | 0.13 | 0.13 | 52 | 1016.9 |
| 20260905114534 | 20 | 252 | 19.3 | 78.9 | 0.13 | 0.13 | 0.13 | 51 | 1016.9 |
| 20260905113534 | 20 | 258 | 29.0 | 115.9 | 0.13 | 0.13 | 0.13 | 52 | 1016.9 |
| 20260905112534 | 20 | 12 | 25.7 | 111.0 | 0.13 | 0.13 | 0.13 | 52 | 1016.9 |
| 20260905111534 | 20 | 222 | 40.2 | 154.5 | 0.13 | 0.13 | 0.13 | 54 | 1016.9 |
| 20260905110534 | 18 | 198 | 17.7 | 64.4 | 0.13 | 0.13 | 0.13 | 55 | 1016.9 |
| 20260905105534 | 18 | 246 | 25.7 | 111.0 | 0.13 | 0.13 | 0.13 | 58 | 1016.9 |
| 20260905104534 | 18 | 239 | 12.9 | 49.9 | 0.13 | 0.13 | 0.13 | 56 | 1016.6 |
| 20260905103535 | 18 | 221 | 19.3 | 72.4 | 0.13 | 0.13 | 0.13 | 58 | 1016.6 |
| 20260905102534 | 18 | 227 | 22.5 | 90.1 | 0.13 | 0.13 | 0.13 | 60 | 1016.6 |
| 20260905101534 | 18 | 228 | 33.8 | 133.6 | 0.13 | 0.13 | 0.13 | 60 | 1016.6 |
| 20260905100534 | 18 | 251 | 6.4 | 25.7 | 0.13 | 0.13 | 0.13 | 62 | 1016.9 |
| 20260905095534 | 17 | 289 | 14.5 | 54.7 | 0.13 | 0.13 | 0.13 | 66 | 1016.6 |
| 20260905094534 | 17 | 228 | 24.1 | 90.1 | 0.13 | 0.13 | 0.13 | 61 | 1016.6 |
| 20260905093534 | 17 | 54 | 20.9 | 86.9 | 0.13 | 0.13 | 0.13 | 64 | 1016.6 |
| 20260905092534 | 18 | 256 | 11.3 | 46.7 | 0.13 | 0.13 | 0.13 | 65 | 1016.6 |
| 20260905091534 | 17 | 229 | 14.5 | 64.4 | 0.13 | 0.13 | 0.13 | 65 | 1016.6 |
| 20260905090534 | 17 | 202 | 25.7 | 93.3 | 0.13 | 0.13 | 0.13 | 66 | 1016.6 |
| 20260905085534 | 17 | 205 | 25.7 | 93.3 | 0.13 | 0.13 | 0.13 | 66 | 1016.6 |
| 20260905084534 | 17 | 236 | 14.5 | 54.7 | 0.13 | 0.13 | 0.13 | 69 | 1016.6 |
| 20260905083534 | 17 | 229 | 22.5 | 86.9 | 0.13 | 0.13 | 0.13 | 68 | 1016.6 |
| 20260905082534 | 17 | 235 | 19.3 | 75.6 | 0.13 | 0.13 | 0.13 | 69 | 1016.6 |
| 20260905081535 | 17 | 306 | 17.7 | 72.4 | 0.13 | 0.13 | 0.13 | 71 | 1016.6 |
| 20260905080534 | 17 | 360 | 14.5 | 54.7 | 0.13 | 0.13 | 0.13 | 71 | 1016.3 |
| 20260905075534 | 17 | 241 | 27.4 | 115.9 | 0.13 | 0.13 | 0.13 | 70 | 1016.3 |
| 20260905074534 | 17 | 215 | 19.3 | 75.6 | 0.13 | 0.13 | 0.13 | 71 | 1016.6 |
| 20260905073534 | 17 | 158 | 17.7 | 72.4 | 0.13 | 0.13 | 0.13 | 73 | 1016.3 |
| 20260905072534 | 17 | 305 | 25.7 | 119.1 | 0.13 | 0.13 | 0.13 | 72 | 1015.9 |
| 20260905070534 | 17 | 263 | 22.5 | 96.6 | 0.13 | 0.13 | 0.13 | 75 | 1015.9 |
| 20260905065534 | 17 | 253 | 14.5 | 49.9 | 0.13 | 0.13 | 0.13 | 76 | 1015.6 |
| 20260905064534 | 17 | 342 | 17.7 | 75.6 | 0.13 | 0.13 | 0.13 | 76 | 1015.6 |
| 20260905063534 | 16 | 240 | 24.1 | 90.1 | 0.13 | 0.13 | 0.13 | 78 | 1015.6 |
| 20260905062534 | 16 | 228 | 19.3 | 75.6 | 0.13 | 0.13 | 0.13 | 79 | 1015.6 |
| 20260905061534 | 17 | 253 | 17.7 | 72.4 | 0.13 | 0.13 | 0.13 | 79 | 1015.6 |
| 20260905060534 | 17 | 256 | 12.9 | 49.9 | 0.13 | 0.13 | 0.13 | 78 | 1015.6 |
| 20260905055534 | 16 | 234 | 19.3 | 75.6 | 0.13 | 0.13 | 0.13 | 79 | 1015.6 |
| 20260905054534 | 16 | 245 | 9.7 | 32.2 | 0.13 | 0.13 | 0.13 | 80 | 1015.2 |
| 20260905053534 | 16 | 216 | 17.7 | 72.4 | 0.13 | 0.13 | 0.13 | 80 | 1015.2 |
| 20260905052534 | 16 | 218 | 12.9 | 49.9 | 0.13 | 0.13 | 0.13 | 82 | 1014.9 |
| 20260905051534 | 16 | 222 | 25.7 | 90.1 | 0.13 | 0.13 | 0.13 | 83 | 1014.9 |
| 20260905050534 | 16 | 210 | 17.7 | 72.4 | 0.13 | 0.13 | 0.13 | 83 | 1014.9 |
| 20260905045534 | 16 | 232 | 12.9 | 49.9 | 0.13 | 0.13 | 0.13 | 83 | 1014.9 |
| 20260905044534 | 16 | 221 | 12.9 | 49.9 | 0.13 | 0.13 | 0.13 | 83 | 1014.6 |
| 20260905043534 | 16 | 207 | 12.9 | 49.9 | 0.13 | 0.13 | 0.13 | 85 | 1014.6 |
| 20260905042534 | 15 | 252 | 6.4 | 25.7 | 0.13 | 0.13 | 0.13 | 86 | 1014.2 |
| 20260905041534 | 16 | 229 | 9.7 | 32.2 | 0.13 | 0.13 | 0.13 | 84 | 1013.9 |
| 20260905040534 | 16 | 207 | 9.7 | 32.2 | 0.13 | 0.13 | 0.13 | 84 | 1014.2 |
| 20260905035534 | 16 | 247 | 6.4 | 25.7 | 0.13 | 0.13 | 0.13 | 83 | 1013.9 |
| 20260905034534 | 16 | 344 | 3.2 | 11.3 | 0.13 | 0.13 | 0.13 | 83 | 1013.9 |
| 20260905033534 | 16 | 236 | 9.7 | 40.2 | 0.13 | 0.13 | 0.13 | 82 | 1013.9 |
| 20260905032534 | 16 | 283 | 8.0 | 32.2 | 0.13 | 0.13 | 0.13 | 83 | 1013.9 |
| 20260905031534 | 16 | 262 | 14.5 | 61.2 | 0.13 | 0.13 | 0.13 | 82 | 1013.9 |
| 20260905030534 | 16 | 211 | 12.9 | 46.7 | 0.13 | 0.13 | 0.13 | 82 | 1013.6 |
| 20260905025534 | 16 | 259 | 17.7 | 69.2 | 0.13 | 0.13 | 0.13 | 83 | 1013.2 |
| 20260905024534 | 16 | 270 | 9.7 | 40.2 | 0.13 | 0.13 | 0.13 | 83 | 1013.2 |
| 20260905023534 | 16 | 253 | 17.7 | 72.4 | 0.13 | 0.13 | 0.13 | 82 | 1012.9 |
| 20260905022534 | 16 | 227 | 9.7 | 32.2 | 0.13 | 0.13 | 0.13 | 83 | 1013.2 |
| 20260905021534 | 16 | 229 | 17.7 | 69.2 | 0.13 | 0.13 | 0.13 | 83 | 1012.5 |
| 20260905020534 | 16 | 222 | 12.9 | 46.7 | 0.13 | 0.13 | 0.13 | 83 | 1012.5 |
| 20260905015534 | 16 | 253 | 9.7 | 35.4 | 0.13 | 0.13 | 0.13 | 83 | 1012.5 |
| 20260905014534 | 16 | 247 | 14.5 | 72.4 | 0.13 | 0.13 | 0.13 | 83 | 1012.2 |
| 20260905013534 | 16 | 239 | 17.7 | 69.2 | 0.13 | 0.13 | 0.13 | 83 | 1012.2 |
| 20260905012534 | 16 | 239 | 12.9 | 46.7 | 0.13 | 0.13 | 0.13 | 84 | 1012.5 |
| 20260905011534 | 16 | 235 | 17.7 | 75.6 | 0.13 | 0.13 | 0.13 | 85 | 1012.5 |
| 20260905010534 | 16 | 249 | 24.1 | 96.6 | 0.13 | 0.13 | 0.13 | 87 | 1012.5 |
| 20260905005534 | 16 | 336 | 11.3 | 46.7 | 0.13 | 0.13 | 0.13 | 87 | 1011.9 |
| 20260905004534 | 16 | 229 | 14.5 | 72.4 | 0.13 | 0.13 | 0.13 | 87 | 1012.2 |
| 20260905003534 | 16 | 251 | 6.4 | 29.0 | 0.13 | 0.13 | 0.13 | 88 | 1012.5 |
| 20260905002534 | 16 | 227 | 20.9 | 86.9 | 0.13 | 0.13 | 0.13 | 87 | 1012.5 |
| 20260905001534 | 16 | 206 | 14.5 | 49.9 | 0.13 | 0.13 | 0.13 | 86 | 1012.5 |
| 20260905000534 | 17 | 262 | 19.3 | 72.4 | 0.13 | 0.13 | 0.13 | 87 | 1012.2 |
| 20260904235534 | 17 | 246 | 27.4 | 130.4 | 0.13 | 0.13 | 0.13 | 87 | 1012.2 |
| 20260904234534 | 17 | 255 | 14.5 | 54.7 | 0.13 | 0.13 | 0.13 | 87 | 1012.2 |
| 20260904233534 | 16 | 228 | 9.7 | 35.4 | 0.13 | 0.13 | 0.13 | 89 | 1011.9 |
| 20260904232534 | 16 | 262 | 11.3 | 46.7 | 0.13 | 0.13 | 0.13 | 90 | 1011.2 |
| 20260904231534 | 16 | 238 | 14.5 | 64.4 | 0.13 | 0.13 | 0.13 | 89 | 1012.2 |
| 20260904230534 | 16 | 228 | 14.5 | 49.9 | 0.13 | 0.13 | 0.13 | 86 | 1011.5 |
| 20260904225534 | 16 | 317 | 14.5 | 61.2 | 0.13 | 0.13 | 0.13 | 87 | 1011.5 |
| 20260904224534 | 16 | 251 | 14.5 | 72.4 | 0.13 | 0.13 | 0.13 | 90 | 1011.9 |
| 20260904223534 | 16 | 242 | 30.6 | 122.3 | 0.08 | 0.08 | 0.08 | 91 | 1011.9 |
| 20260904222534 | 16 | 228 | 9.7 | 35.4 | 0.05 | 0.05 | 0.05 | 91 | 1011.2 |
| 20260904221534 | 16 | 240 | 11.3 | 46.7 | 0.00 | 0.00 | 0.00 | 90 | 1011.2 |
| 20260904220535 | 16 | 235 | 17.7 | 64.4 | 0.00 | 0.00 | 0.00 | 90 | 1011.9 |
| 20260904215535 | 16 | 239 | 17.7 | 72.4 | 0.71 | 0.71 | 0.71 | 90 | 1011.5 |
| 20260904214534 | 17 | 218 | 17.7 | 72.4 | 0.64 | 0.64 | 0.64 | 88 | 1011.2 |
| 20260904213534 | 17 | 228 | 14.5 | 49.9 | 0.61 | 0.61 | 0.61 | 87 | 1011.2 |
| 20260904212534 | 17 | 223 | 12.9 | 46.7 | 0.56 | 0.56 | 0.56 | 87 | 1010.8 |
| 20260904211533 | 17 | 210 | 14.5 | 49.9 | 0.56 | 0.56 | 0.56 | 88 | 1011.5 |
| 20260904210534 | 17 | 222 | 11.3 | 46.7 | 0.48 | 0.48 | 0.48 | 87 | 1011.5 |
| 20260904205534 | 17 | 264 | 9.7 | 40.2 | 0.43 | 0.43 | 0.43 | 87 | 1011.2 |
| 20260904204534 | 17 | 270 | 14.5 | 54.7 | 0.41 | 0.41 | 0.41 | 83 | 1011.2 |
| 20260904203534 | 17 | 207 | 14.5 | 49.9 | 0.41 | 0.41 | 0.41 | 83 | 1011.5 |
| 20260904202534 | 17 | 300 | 17.7 | 69.2 | 0.41 | 0.41 | 0.41 | 83 | 1011.9 |
| 20260904201534 | 17 | 227 | 9.7 | 35.4 | 0.36 | 0.36 | 0.36 | 80 | 1011.5 |
| 20260904200534 | 17 | 256 | 6.4 | 25.7 | 0.36 | 0.36 | 0.36 | 79 | 1011.5 |
| 20260904195534 | 18 | 273 | 11.3 | 40.2 | 0.36 | 0.36 | 0.36 | 77 | 1011.2 |
| 20260904194534 | 18 | 275 | 8.0 | 32.2 | 0.36 | 0.36 | 0.36 | 78 | 1011.2 |
| 20260904193534 | 18 | 228 | 9.7 | 32.2 | 0.36 | 0.36 | 0.36 | 80 | 1011.2 |
| 20260904192534 | 18 | 249 | 24.1 | 101.4 | 0.36 | 0.36 | 0.36 | 80 | 1011.5 |
| 20260904191534 | 18 | 291 | 9.7 | 40.2 | 0.36 | 0.36 | 0.36 | 81 | 1010.5 |
| 20260904190534 | 18 | 325 | 9.7 | 40.2 | 0.36 | 0.36 | 0.36 | 83 | 1010.5 |
| 20260904185534 | 20 | 12 | 6.4 | 25.7 | 0.36 | 0.36 | 0.36 | 81 | 1009.8 |
| 20260904184534 | 20 | 241 | 22.5 | 90.1 | 0.36 | 0.36 | 0.36 | 80 | 1009.8 |